sensor_id;sensor_type;location;lat;lon;timestamp;pressure;altitude;pressure_sealevel;temperature;humidity
74561;BME280;62979;55.720;37.606;2023-04-15T00:02:19;100892.81;;;7.71;20.54
74561;BME280;62979;55.720;37.606;2023-04-15T00:04:46;100895.38;;;7.64;21.71
74561;BME280;62979;55.720;37.606;2023-04-15T00:07:15;100900.66;;;7.76;21.50
74561;BME280;62979;55.720;37.606;2023-04-15T00:09:42;100895.38;;;7.64;21.88
74561;BME280;62979;55.720;37.606;2023-04-15T00:12:09;100905.78;;;7.64;21.05
74561;BME280;62979;55.720;37.606;2023-04-15T00:14:36;100910.97;;;7.62;21.10
74561;BME280;62979;55.720;37.606;2023-04-15T00:17:04;100904.94;;;7.66;20.91
74561;BME280;62979;55.720;37.606;2023-04-15T00:19:31;100916.16;;;7.59;20.27
74561;BME280;62979;55.720;37.606;2023-04-15T00:21:59;100920.56;;;7.66;20.93
74561;BME280;62979;55.720;37.606;2023-04-15T00:24:27;100913.66;;;7.75;21.11
74561;BME280;62979;55.720;37.606;2023-04-15T00:26:55;100918.88;;;7.78;20.98
74561;BME280;62979;55.720;37.606;2023-04-15T00:29:22;100924.00;;;7.65;21.73
74561;BME280;62979;55.720;37.606;2023-04-15T00:31:49;100924.00;;;7.61;20.67
74561;BME280;62979;55.720;37.606;2023-04-15T00:34:16;100918.69;;;7.47;21.00
74561;BME280;62979;55.720;37.606;2023-04-15T00:36:43;100920.22;;;7.26;21.13
74561;BME280;62979;55.720;37.606;2023-04-15T00:39:10;100928.13;;;7.34;21.39
74561;BME280;62979;55.720;37.606;2023-04-15T00:41:39;100938.59;;;7.42;21.94
74561;BME280;62979;55.720;37.606;2023-04-15T00:44:05;100935.19;;;7.52;21.68
74561;BME280;62979;55.720;37.606;2023-04-15T00:46:35;100935.91;;;7.33;21.33
74561;BME280;62979;55.720;37.606;2023-04-15T00:49:04;100945.50;;;7.38;21.13
74561;BME280;62979;55.720;37.606;2023-04-15T00:51:32;100930.63;;;7.23;21.14
74561;BME280;62979;55.720;37.606;2023-04-15T00:54:01;100947.13;;;7.27;21.70
74561;BME280;62979;55.720;37.606;2023-04-15T00:56:29;100935.81;;;7.23;22.30
74561;BME280;62979;55.720;37.606;2023-04-15T00:58:58;100939.38;;;7.32;21.45
74561;BME280;62979;55.720;37.606;2023-04-15T01:01:25;100953.41;;;7.52;21.91
74561;BME280;62979;55.720;37.606;2023-04-15T01:03:54;100951.75;;;7.62;21.89
74561;BME280;62979;55.720;37.606;2023-04-15T01:06:23;100967.34;;;7.57;22.09
74561;BME280;62979;55.720;37.606;2023-04-15T01:08:51;100968.72;;;7.15;21.04
74561;BME280;62979;55.720;37.606;2023-04-15T01:11:18;100973.94;;;7.21;22.05
74561;BME280;62979;55.720;37.606;2023-04-15T01:13:46;100976.47;;;7.12;22.62
74561;BME280;62979;55.720;37.606;2023-04-15T01:16:15;100977.38;;;7.16;22.02
74561;BME280;62979;55.720;37.606;2023-04-15T01:18:42;100975.50;;;7.01;21.88
74561;BME280;62979;55.720;37.606;2023-04-15T01:21:10;100971.19;;;7.06;22.73
74561;BME280;62979;55.720;37.606;2023-04-15T01:23:38;100944.19;;;6.95;22.21
74561;BME280;62979;55.720;37.606;2023-04-15T01:26:07;100972.09;;;7.08;21.99
74561;BME280;62979;55.720;37.606;2023-04-15T01:28:34;100976.31;;;6.97;22.25
74561;BME280;62979;55.720;37.606;2023-04-15T01:31:05;100988.53;;;7.02;22.50
74561;BME280;62979;55.720;37.606;2023-04-15T01:33:33;100972.81;;;6.93;22.60
74561;BME280;62979;55.720;37.606;2023-04-15T01:36:01;100992.94;;;7.11;22.32
74561;BME280;62979;55.720;37.606;2023-04-15T01:38:28;100989.44;;;7.09;21.99
74561;BME280;62979;55.720;37.606;2023-04-15T01:40:56;100996.16;;;6.89;21.30
74561;BME280;62979;55.720;37.606;2023-04-15T01:43:25;101001.41;;;6.93;22.60
74561;BME280;62979;55.720;37.606;2023-04-15T01:45:52;101010.06;;;6.92;21.95
74561;BME280;62979;55.720;37.606;2023-04-15T01:48:19;101009.97;;;6.84;22.93
74561;BME280;62979;55.720;37.606;2023-04-15T01:50:46;101004.84;;;6.91;22.13
74561;BME280;62979;55.720;37.606;2023-04-15T01:53:13;101008.38;;;6.96;22.18
74561;BME280;62979;55.720;37.606;2023-04-15T01:55:40;101017.94;;;6.98;22.54
74561;BME280;62979;55.720;37.606;2023-04-15T01:58:07;101002.31;;;6.97;22.37
74561;BME280;62979;55.720;37.606;2023-04-15T02:00:35;101008.44;;;7.00;22.21
74561;BME280;62979;55.720;37.606;2023-04-15T02:03:02;101018.69;;;6.90;21.97
74561;BME280;62979;55.720;37.606;2023-04-15T02:05:29;101023.84;;;6.83;21.82
74561;BME280;62979;55.720;37.606;2023-04-15T02:07:56;101028.09;;;6.77;22.24
74561;BME280;62979;55.720;37.606;2023-04-15T02:10:23;101032.44;;;6.79;22.16
74561;BME280;62979;55.720;37.606;2023-04-15T02:12:50;101012.41;;;6.71;22.51
74561;BME280;62979;55.720;37.606;2023-04-15T02:15:18;101033.16;;;6.68;22.85
74561;BME280;62979;55.720;37.606;2023-04-15T02:17:47;101033.16;;;6.68;22.99
74561;BME280;62979;55.720;37.606;2023-04-15T02:20:15;101040.16;;;6.72;23.29
74561;BME280;62979;55.720;37.606;2023-04-15T02:22:45;101047.31;;;6.88;22.61
74561;BME280;62979;55.720;37.606;2023-04-15T02:25:12;101040.44;;;6.93;22.45
74561;BME280;62979;55.720;37.606;2023-04-15T02:27:41;101045.53;;;6.85;22.45
74561;BME280;62979;55.720;37.606;2023-04-15T02:30:08;101053.25;;;6.79;22.24
74561;BME280;62979;55.720;37.606;2023-04-15T02:32:35;101051.53;;;6.81;22.04
74561;BME280;62979;55.720;37.606;2023-04-15T02:35:05;101054.25;;;6.92;22.61
74561;BME280;62979;55.720;37.606;2023-04-15T02:37:35;101065.47;;;6.86;22.42
74561;BME280;62979;55.720;37.606;2023-04-15T02:40:08;101063.66;;;6.79;21.92
74561;BME280;62979;55.720;37.606;2023-04-15T02:42:37;101065.38;;;6.79;22.84
74561;BME280;62979;55.720;37.606;2023-04-15T02:45:05;101063.31;;;6.55;22.37
74561;BME280;62979;55.720;37.606;2023-04-15T02:47:33;101073.63;;;6.49;22.87
74561;BME280;62979;55.720;37.606;2023-04-15T02:50:02;101063.16;;;6.42;22.53
74561;BME280;62979;55.720;37.606;2023-04-15T02:52:31;101080.66;;;6.56;22.80
74561;BME280;62979;55.720;37.606;2023-04-15T02:54:58;101078.03;;;6.54;23.44
74561;BME280;62979;55.720;37.606;2023-04-15T02:57:27;101093.47;;;6.43;22.91
74561;BME280;62979;55.720;37.606;2023-04-15T02:59:54;101089.91;;;6.37;22.47
74561;BME280;62979;55.720;37.606;2023-04-15T03:02:21;101080.47;;;6.43;22.60
74561;BME280;62979;55.720;37.606;2023-04-15T03:04:48;101077.09;;;6.49;22.88
74561;BME280;62979;55.720;37.606;2023-04-15T03:07:18;101090.69;;;6.31;22.30
74561;BME280;62979;55.720;37.606;2023-04-15T03:09:45;101098.47;;;6.31;22.77
74561;BME280;62979;55.720;37.606;2023-04-15T03:12:13;101093.47;;;6.43;23.35
74561;BME280;62979;55.720;37.606;2023-04-15T03:14:40;101095.41;;;6.57;22.28
74561;BME280;62979;55.720;37.606;2023-04-15T03:17:07;101095.47;;;6.61;22.71
74561;BME280;62979;55.720;37.606;2023-04-15T03:19:33;101091.16;;;6.62;22.97
74561;BME280;62979;55.720;37.606;2023-04-15T03:22:00;101099.91;;;6.69;23.12
74561;BME280;62979;55.720;37.606;2023-04-15T03:24:29;101107.81;;;6.78;22.49
74561;BME280;62979;55.720;37.606;2023-04-15T03:26:56;101113.91;;;6.78;21.99
74561;BME280;62979;55.720;37.606;2023-04-15T03:29:23;101112.00;;;6.68;22.11
74561;BME280;62979;55.720;37.606;2023-04-15T03:31:51;101111.84;;;6.56;22.71
74561;BME280;62979;55.720;37.606;2023-04-15T03:34:18;101117.28;;;6.71;23.00
74561;BME280;62979;55.720;37.606;2023-04-15T03:36:45;101099.84;;;6.64;22.14
74561;BME280;62979;55.720;37.606;2023-04-15T03:39:12;101115.59;;;6.76;22.60
74561;BME280;62979;55.720;37.606;2023-04-15T03:41:40;101111.09;;;6.64;23.47
74561;BME280;62979;55.720;37.606;2023-04-15T03:44:07;101119.91;;;6.74;22.30
74561;BME280;62979;55.720;37.606;2023-04-15T03:46:34;101125.00;;;6.67;22.36
74561;BME280;62979;55.720;37.606;2023-04-15T03:49:01;101123.41;;;6.78;22.66
74561;BME280;62979;55.720;37.606;2023-04-15T03:51:28;101129.44;;;6.75;22.09
74561;BME280;62979;55.720;37.606;2023-04-15T03:53:55;101126.06;;;6.82;22.40
74561;BME280;62979;55.720;37.606;2023-04-15T03:56:23;101133.13;;;6.88;21.86
74561;BME280;62979;55.720;37.606;2023-04-15T03:58:52;101145.34;;;6.97;22.32
74561;BME280;62979;55.720;37.606;2023-04-15T04:01:18;101127.69;;;6.73;22.27
74561;BME280;62979;55.720;37.606;2023-04-15T04:03:45;101133.81;;;6.78;22.67
74561;BME280;62979;55.720;37.606;2023-04-15T04:06:12;101127.97;;;6.93;22.66
74561;BME280;62979;55.720;37.606;2023-04-15T04:08:40;101135.03;;;7.03;22.11
74561;BME280;62979;55.720;37.606;2023-04-15T04:11:06;101137.09;;;6.64;21.75
74561;BME280;62979;55.720;37.606;2023-04-15T04:13:33;101148.28;;;6.59;21.92
74561;BME280;62979;55.720;37.606;2023-04-15T04:16:02;101141.22;;;6.49;22.33
74561;BME280;62979;55.720;37.606;2023-04-15T04:18:30;101139.47;;;6.51;22.38
74561;BME280;62979;55.720;37.606;2023-04-15T04:20:57;101152.66;;;6.61;22.19
74561;BME280;62979;55.720;37.606;2023-04-15T04:23:24;101151.94;;;6.72;22.24
74561;BME280;62979;55.720;37.606;2023-04-15T04:25:51;101155.41;;;6.72;21.97
74561;BME280;62979;55.720;37.606;2023-04-15T04:28:18;101145.69;;;6.59;22.27
74561;BME280;62979;55.720;37.606;2023-04-15T04:30:45;101155.22;;;6.58;21.55
74561;BME280;62979;55.720;37.606;2023-04-15T04:33:13;101147.25;;;6.48;22.94
74561;BME280;62979;55.720;37.606;2023-04-15T04:35:40;101157.84;;;6.63;22.00
74561;BME280;62979;55.720;37.606;2023-04-15T04:38:07;101162.13;;;6.58;22.01
74561;BME280;62979;55.720;37.606;2023-04-15T04:40:34;101167.38;;;6.62;21.84
74561;BME280;62979;55.720;37.606;2023-04-15T04:43:01;101153.53;;;6.62;21.85
74561;BME280;62979;55.720;37.606;2023-04-15T04:45:28;101160.63;;;6.74;21.75
74561;BME280;62979;55.720;37.606;2023-04-15T04:47:55;101159.22;;;6.96;22.09
74561;BME280;62979;55.720;37.606;2023-04-15T04:50:23;101157.56;;;7.01;21.46
74561;BME280;62979;55.720;37.606;2023-04-15T04:52:51;101156.00;;;7.15;21.74
74561;BME280;62979;55.720;37.606;2023-04-15T04:55:18;101163.16;;;7.32;21.42
74561;BME280;62979;55.720;37.606;2023-04-15T04:57:45;101160.38;;;7.18;21.27
74561;BME280;62979;55.720;37.606;2023-04-15T05:00:13;101154.25;;;7.14;22.04
74561;BME280;62979;55.720;37.606;2023-04-15T05:02:40;101164.66;;;7.14;21.79
74561;BME280;62979;55.720;37.606;2023-04-15T05:05:08;101154.66;;;6.79;21.54
74561;BME280;62979;55.720;37.606;2023-04-15T05:07:37;101160.81;;;6.88;21.87
74561;BME280;62979;55.720;37.606;2023-04-15T05:10:06;101154.75;;;6.85;21.09
74561;BME280;62979;55.720;37.606;2023-04-15T05:12:34;101166.84;;;6.85;21.26
74561;BME280;62979;55.720;37.606;2023-04-15T05:15:03;101167.56;;;6.73;21.50
74561;BME280;62979;55.720;37.606;2023-04-15T05:17:31;101170.00;;;6.62;21.01
74561;BME280;62979;55.720;37.606;2023-04-15T05:19:59;101169.91;;;6.56;21.54
74561;BME280;62979;55.720;37.606;2023-04-15T05:22:26;101170.78;;;6.57;21.92
74561;BME280;62979;55.720;37.606;2023-04-15T05:24:55;101179.81;;;6.80;22.23
74561;BME280;62979;55.720;37.606;2023-04-15T05:27:21;101171.19;;;6.84;21.39
74561;BME280;62979;55.720;37.606;2023-04-15T05:29:48;101175.41;;;6.76;21.39
74561;BME280;62979;55.720;37.606;2023-04-15T05:32:15;101173.72;;;6.78;21.79
74561;BME280;62979;55.720;37.606;2023-04-15T05:34:42;101172.28;;;7.00;21.40
74561;BME280;62979;55.720;37.606;2023-04-15T05:37:09;101184.34;;;6.95;21.21
74561;BME280;62979;55.720;37.606;2023-04-15T05:39:37;101178.13;;;6.84;21.08
74561;BME280;62979;55.720;37.606;2023-04-15T05:42:05;101179.31;;;7.07;21.25
74561;BME280;62979;55.720;37.606;2023-04-15T05:44:32;101178.66;;;7.22;21.48
74561;BME280;62979;55.720;37.606;2023-04-15T05:46:59;101183.03;;;7.26;21.06
74561;BME280;62979;55.720;37.606;2023-04-15T05:49:28;101165.53;;;7.16;20.93
74561;BME280;62979;55.720;37.606;2023-04-15T05:51:55;101188.19;;;7.23;21.31
74561;BME280;62979;55.720;37.606;2023-04-15T05:54:21;101197.78;;;7.26;21.55
74561;BME280;62979;55.720;37.606;2023-04-15T05:56:48;101197.94;;;7.37;21.57
74561;BME280;62979;55.720;37.606;2023-04-15T05:59:17;101189.09;;;7.25;20.98
74561;BME280;62979;55.720;37.606;2023-04-15T06:01:44;101192.84;;;7.47;21.31
74561;BME280;62979;55.720;37.606;2023-04-15T06:04:12;101191.38;;;7.72;21.21
74561;BME280;62979;55.720;37.606;2023-04-15T06:06:39;101198.59;;;7.95;21.07
74561;BME280;62979;55.720;37.606;2023-04-15T06:09:06;101199.38;;;7.89;20.69
74561;BME280;62979;55.720;37.606;2023-04-15T06:11:33;101200.31;;;7.93;20.79
74561;BME280;62979;55.720;37.606;2023-04-15T06:14:00;101208.00;;;7.82;20.78
74561;BME280;62979;55.720;37.606;2023-04-15T06:16:28;101207.97;;;7.79;20.83
74561;BME280;62979;55.720;37.606;2023-04-15T06:18:55;101200.78;;;7.58;20.67
74561;BME280;62979;55.720;37.606;2023-04-15T06:21:22;101204.41;;;7.72;20.85
74561;BME280;62979;55.720;37.606;2023-04-15T06:23:49;101213.25;;;7.87;21.29
74561;BME280;62979;55.720;37.606;2023-04-15T06:26:16;101207.16;;;7.85;20.86
74561;BME280;62979;55.720;37.606;2023-04-15T06:28:43;101199.44;;;7.94;20.61
74561;BME280;62979;55.720;37.606;2023-04-15T06:31:10;101210.09;;;8.19;20.46
74561;BME280;62979;55.720;37.606;2023-04-15T06:33:39;101190.19;;;8.22;20.85
74561;BME280;62979;55.720;37.606;2023-04-15T06:36:06;101195.53;;;8.39;20.19
74561;BME280;62979;55.720;37.606;2023-04-15T06:38:33;101199.91;;;8.40;20.47
74561;BME280;62979;55.720;37.606;2023-04-15T06:41:01;101179.00;;;8.39;20.80
74561;BME280;62979;55.720;37.606;2023-04-15T06:43:30;101200.19;;;8.71;20.48
74561;BME280;62979;55.720;37.606;2023-04-15T06:45:57;101200.25;;;8.82;20.87
74561;BME280;62979;55.720;37.606;2023-04-15T06:48:24;101205.34;;;8.68;20.14
74561;BME280;62979;55.720;37.606;2023-04-15T06:50:53;101209.69;;;8.67;20.30
74561;BME280;62979;55.720;37.606;2023-04-15T06:53:20;101211.50;;;8.77;20.99
74561;BME280;62979;55.720;37.606;2023-04-15T06:55:47;101208.91;;;8.79;20.35
74561;BME280;62979;55.720;37.606;2023-04-15T06:58:14;101204.50;;;8.66;20.94
74561;BME280;62979;55.720;37.606;2023-04-15T07:00:41;101208.13;;;8.88;20.48
74561;BME280;62979;55.720;37.606;2023-04-15T07:03:09;101211.75;;;9.10;19.69
74561;BME280;62979;55.720;37.606;2023-04-15T07:05:37;101216.94;;;9.05;19.94
74561;BME280;62979;55.720;37.606;2023-04-15T07:08:06;101212.69;;;9.26;20.17
74561;BME280;62979;55.720;37.606;2023-04-15T07:10:33;101208.44;;;9.46;19.97
74561;BME280;62979;55.720;37.606;2023-04-15T07:13:00;101211.13;;;9.66;19.13
74561;BME280;62979;55.720;37.606;2023-04-15T07:15:27;101216.25;;;9.45;19.06
74561;BME280;62979;55.720;37.606;2023-04-15T07:17:54;101202.16;;;9.10;19.53
74561;BME280;62979;55.720;37.606;2023-04-15T07:20:21;101206.56;;;9.19;19.24
74561;BME280;62979;55.720;37.606;2023-04-15T07:22:48;101192.66;;;9.17;19.25
74561;BME280;62979;55.720;37.606;2023-04-15T07:25:16;101213.53;;;9.20;19.44
74561;BME280;62979;55.720;37.606;2023-04-15T07:27:43;101208.28;;;9.18;19.30
74561;BME280;62979;55.720;37.606;2023-04-15T07:30:11;101214.47;;;9.36;19.25
74561;BME280;62979;55.720;37.606;2023-04-15T07:32:38;101200.56;;;9.35;19.98
74561;BME280;62979;55.720;37.606;2023-04-15T07:35:06;101209.31;;;9.53;18.40
74561;BME280;62979;55.720;37.606;2023-04-15T07:37:34;101216.38;;;9.71;18.72
74561;BME280;62979;55.720;37.606;2023-04-15T07:40:01;101187.59;;;9.57;18.52
74561;BME280;62979;55.720;37.606;2023-04-15T07:42:30;101195.44;;;9.57;18.45
74561;BME280;62979;55.720;37.606;2023-04-15T07:44:57;101202.47;;;9.73;18.63
74561;BME280;62979;55.720;37.606;2023-04-15T07:47:24;101202.47;;;9.84;17.63
74561;BME280;62979;55.720;37.606;2023-04-15T07:49:52;101186.78;;;9.87;18.17
74561;BME280;62979;55.720;37.606;2023-04-15T07:52:18;101192.91;;;9.94;18.61
74561;BME280;62979;55.720;37.606;2023-04-15T07:54:45;101192.94;;;10.09;18.14
74561;BME280;62979;55.720;37.606;2023-04-15T07:57:13;101189.50;;;10.19;18.93
74561;BME280;62979;55.720;37.606;2023-04-15T07:59:42;101202.59;;;10.39;18.41
74561;BME280;62979;55.720;37.606;2023-04-15T08:02:10;101193.00;;;10.40;18.47
74561;BME280;62979;55.720;37.606;2023-04-15T08:04:37;101202.50;;;10.01;18.27
74561;BME280;62979;55.720;37.606;2023-04-15T08:07:04;101196.44;;;9.97;18.77
74561;BME280;62979;55.720;37.606;2023-04-15T08:09:32;101195.56;;;10.09;18.36
74561;BME280;62979;55.720;37.606;2023-04-15T08:11:58;101206.09;;;10.37;18.42
74561;BME280;62979;55.720;37.606;2023-04-15T08:14:26;101202.63;;;10.56;18.33
74561;BME280;62979;55.720;37.606;2023-04-15T08:16:54;101199.09;;;10.56;17.90
74561;BME280;62979;55.720;37.606;2023-04-15T08:19:21;101198.22;;;10.78;18.59
74561;BME280;62979;55.720;37.606;2023-04-15T08:21:48;101197.28;;;11.11;17.53
74561;BME280;62979;55.720;37.606;2023-04-15T08:24:15;101203.41;;;11.10;17.03
74561;BME280;62979;55.720;37.606;2023-04-15T08:26:42;101207.66;;;11.41;17.23
74561;BME280;62979;55.720;37.606;2023-04-15T08:29:09;101196.38;;;11.29;16.79
74561;BME280;62979;55.720;37.606;2023-04-15T08:31:36;101212.88;;;11.56;16.56
74561;BME280;62979;55.720;37.606;2023-04-15T08:34:04;101198.78;;;11.78;16.31
74561;BME280;62979;55.720;37.606;2023-04-15T08:36:31;101194.38;;;11.91;16.18
74561;BME280;62979;55.720;37.606;2023-04-15T08:38:58;101197.69;;;12.18;15.58
74561;BME280;62979;55.720;37.606;2023-04-15T08:41:26;101192.63;;;11.87;16.46
74561;BME280;62979;55.720;37.606;2023-04-15T08:44:03;101192.59;;;11.96;16.30
74561;BME280;62979;55.720;37.606;2023-04-15T08:46:31;101189.13;;;11.91;15.85
74561;BME280;62979;55.720;37.606;2023-04-15T08:48:59;101194.41;;;11.88;16.21
74561;BME280;62979;55.720;37.606;2023-04-15T08:51:31;101187.22;;;12.12;16.43
74561;BME280;62979;55.720;37.606;2023-04-15T08:54:00;101179.09;;;12.46;15.80
74561;BME280;62979;55.720;37.606;2023-04-15T08:56:30;101172.09;;;12.48;15.39
74561;BME280;62979;55.720;37.606;2023-04-15T08:58:58;101180.81;;;12.53;15.10
74561;BME280;62979;55.720;37.606;2023-04-15T09:01:25;101178.28;;;12.40;15.37
74561;BME280;62979;55.720;37.606;2023-04-15T09:03:53;101160.19;;;12.04;15.53
74561;BME280;62979;55.720;37.606;2023-04-15T09:06:22;101176.69;;;12.24;15.79
74561;BME280;62979;55.720;37.606;2023-04-15T09:08:50;101162.53;;;12.40;15.68
74561;BME280;62979;55.720;37.606;2023-04-15T09:11:17;101151.94;;;12.56;14.33
74561;BME280;62979;55.720;37.606;2023-04-15T09:13:44;101166.75;;;12.61;14.22
74561;BME280;62979;55.720;37.606;2023-04-15T09:16:12;101168.53;;;12.56;15.69
74561;BME280;62979;55.720;37.606;2023-04-15T09:18:39;101169.28;;;12.69;16.19
74561;BME280;62979;55.720;37.606;2023-04-15T09:21:09;101167.28;;;12.94;16.28
74561;BME280;62979;55.720;37.606;2023-04-15T09:23:39;101167.19;;;13.02;16.90
74561;BME280;62979;55.720;37.606;2023-04-15T09:26:07;101168.03;;;13.04;15.58
74561;BME280;62979;55.720;37.606;2023-04-15T09:28:40;101155.78;;;13.06;17.63
74561;BME280;62979;55.720;37.606;2023-04-15T09:31:08;101167.69;;;13.36;16.48
74561;BME280;62979;55.720;37.606;2023-04-15T09:33:53;101161.00;;;13.80;15.90
74561;BME280;62979;55.720;37.606;2023-04-15T09:36:21;101168.59;;;14.00;16.06
74561;BME280;62979;55.720;37.606;2023-04-15T09:38:55;101164.63;;;13.72;15.11
74561;BME280;62979;55.720;37.606;2023-04-15T09:41:22;101161.03;;;13.79;16.97
74561;BME280;62979;55.720;37.606;2023-04-15T09:43:50;101164.22;;;13.99;15.97
74561;BME280;62979;55.720;37.606;2023-04-15T09:46:17;101172.63;;;14.23;16.08
74561;BME280;62979;55.720;37.606;2023-04-15T09:48:46;101162.84;;;14.32;14.77
74561;BME280;62979;55.720;37.606;2023-04-15T09:51:33;101149.38;;;14.49;15.06
74561;BME280;62979;55.720;37.606;2023-04-15T09:54:02;101160.66;;;14.59;14.41
74561;BME280;62979;55.720;37.606;2023-04-15T09:56:33;101160.38;;;14.74;13.81
74561;BME280;62979;55.720;37.606;2023-04-15T09:59:00;101156.44;;;14.47;13.37
74561;BME280;62979;55.720;37.606;2023-04-15T10:01:27;101164.00;;;14.69;14.11
74561;BME280;62979;55.720;37.606;2023-04-15T10:03:56;101160.50;;;15.15;13.28
74561;BME280;62979;55.720;37.606;2023-04-15T10:06:25;101164.81;;;15.61;13.95
74561;BME280;62979;55.720;37.606;2023-04-15T10:08:53;101160.56;;;15.96;12.99
74561;BME280;62979;55.720;37.606;2023-04-15T10:11:23;101169.22;;;16.01;12.56
74561;BME280;62979;55.720;37.606;2023-04-15T10:13:51;101167.78;;;16.25;12.90
74561;BME280;62979;55.720;37.606;2023-04-15T10:16:19;101150.28;;;16.55;12.13
74561;BME280;62979;55.720;37.606;2023-04-15T10:18:53;101164.53;;;16.84;11.86
74561;BME280;62979;55.720;37.606;2023-04-15T10:21:21;101153.94;;;17.17;11.88
74561;BME280;62979;55.720;37.606;2023-04-15T10:23:48;101151.59;;;17.37;11.42
74561;BME280;62979;55.720;37.606;2023-04-15T10:26:16;101148.66;;;17.76;11.35
74561;BME280;62979;55.720;37.606;2023-04-15T10:28:44;101145.19;;;17.74;12.19
74561;BME280;62979;55.720;37.606;2023-04-15T10:31:13;101151.59;;;17.67;12.10
74561;BME280;62979;55.720;37.606;2023-04-15T10:33:41;101153.31;;;17.98;11.60
74561;BME280;62979;55.720;37.606;2023-04-15T10:36:10;101145.13;;;18.05;11.31
74561;BME280;62979;55.720;37.606;2023-04-15T10:38:38;101144.03;;;18.64;11.29
74561;BME280;62979;55.720;37.606;2023-04-15T10:41:15;101156.56;;;19.34;11.25
74561;BME280;62979;55.720;37.606;2023-04-15T10:43:49;101149.63;;;19.77;10.83
74561;BME280;62979;55.720;37.606;2023-04-15T10:46:20;101145.97;;;19.09;11.14
74561;BME280;62979;55.720;37.606;2023-04-15T10:48:49;101149.88;;;19.24;11.20
74561;BME280;62979;55.720;37.606;2023-04-15T10:51:26;101141.22;;;19.42;10.44
74561;BME280;62979;55.720;37.606;2023-04-15T10:53:56;101143.91;;;19.88;10.91
74561;BME280;62979;55.720;37.606;2023-04-15T10:56:24;101150.91;;;20.33;10.57
74561;BME280;62979;55.720;37.606;2023-04-15T10:58:52;101138.34;;;20.79;9.75
74561;BME280;62979;55.720;37.606;2023-04-15T11:01:19;101140.09;;;20.80;9.95
74561;BME280;62979;55.720;37.606;2023-04-15T11:03:48;101136.88;;;20.72;10.14
74561;BME280;62979;55.720;37.606;2023-04-15T11:06:15;101143.56;;;21.01;9.39
74561;BME280;62979;55.720;37.606;2023-04-15T11:08:53;101130.19;;;21.80;9.46
74561;BME280;62979;55.720;37.606;2023-04-15T11:11:23;101137.22;;;22.00;9.50
74561;BME280;62979;55.720;37.606;2023-04-15T11:14:26;101143.56;;;22.34;9.42
74561;BME280;62979;55.720;37.606;2023-04-15T11:16:53;101135.63;;;21.96;8.89
74561;BME280;62979;55.720;37.606;2023-04-15T11:19:19;101130.63;;;21.71;9.35
74561;BME280;62979;55.720;37.606;2023-04-15T11:21:46;101133.63;;;22.18;9.55
74561;BME280;62979;55.720;37.606;2023-04-15T11:24:23;101134.28;;;22.23;8.91
74561;BME280;62979;55.720;37.606;2023-04-15T11:26:56;101131.88;;;22.36;9.10
74561;BME280;62979;55.720;37.606;2023-04-15T11:29:29;101135.25;;;22.40;8.67
74561;BME280;62979;55.720;37.606;2023-04-15T11:32:08;101134.69;;;22.51;8.61
74561;BME280;62979;55.720;37.606;2023-04-15T11:34:36;101115.63;;;22.23;8.74
74561;BME280;62979;55.720;37.606;2023-04-15T11:37:03;101125.81;;;22.50;9.24
74561;BME280;62979;55.720;37.606;2023-04-15T11:39:32;101126.44;;;22.20;8.60
74561;BME280;62979;55.720;37.606;2023-04-15T11:41:59;101113.56;;;22.11;9.07
74561;BME280;62979;55.720;37.606;2023-04-15T11:44:26;101105.25;;;22.00;9.61
74561;BME280;62979;55.720;37.606;2023-04-15T11:46:55;101093.97;;;21.40;9.14
74561;BME280;62979;55.720;37.606;2023-04-15T11:49:26;101111.69;;;21.20;9.92
74561;BME280;62979;55.720;37.606;2023-04-15T11:51:54;101120.03;;;21.31;9.43
74561;BME280;62979;55.720;37.606;2023-04-15T11:54:21;101112.06;;;21.31;9.06
74561;BME280;62979;55.720;37.606;2023-04-15T11:56:49;101108.44;;;21.32;9.81
74561;BME280;62979;55.720;37.606;2023-04-15T11:59:17;101107.00;;;21.25;9.66
74561;BME280;62979;55.720;37.606;2023-04-15T12:01:44;101104.88;;;21.71;9.48
74561;BME280;62979;55.720;37.606;2023-04-15T12:04:15;101096.25;;;21.47;10.04
74561;BME280;62979;55.720;37.606;2023-04-15T12:06:45;101095.56;;;21.23;9.42
74561;BME280;62979;55.720;37.606;2023-04-15T12:09:13;101105.75;;;20.94;9.20
74561;BME280;62979;55.720;37.606;2023-04-15T12:11:45;101094.84;;;21.01;9.31
74561;BME280;62979;55.720;37.606;2023-04-15T12:14:20;101101.66;;;21.06;9.95
74561;BME280;62979;55.720;37.606;2023-04-15T12:16:50;101097.66;;;20.98;9.57
74561;BME280;62979;55.720;37.606;2023-04-15T12:19:27;101072.19;;;21.11;10.03
74561;BME280;62979;55.720;37.606;2023-04-15T12:21:58;101085.59;;;21.47;9.71
74561;BME280;62979;55.720;37.606;2023-04-15T12:24:31;101093.72;;;21.63;9.48
74561;BME280;62979;55.720;37.606;2023-04-15T12:27:01;101089.16;;;21.65;9.80
74561;BME280;62979;55.720;37.606;2023-04-15T12:29:30;101091.44;;;21.92;9.34
74561;BME280;62979;55.720;37.606;2023-04-15T12:32:04;101081.13;;;21.48;9.35
74561;BME280;62979;55.720;37.606;2023-04-15T12:34:35;101088.84;;;21.54;9.91
74561;BME280;62979;55.720;37.606;2023-04-15T12:37:04;101091.09;;;21.80;9.29
74561;BME280;62979;55.720;37.606;2023-04-15T12:39:35;101090.72;;;21.88;10.16
74561;BME280;62979;55.720;37.606;2023-04-15T12:42:03;101086.91;;;22.11;9.52
74561;BME280;62979;55.720;37.606;2023-04-15T12:44:31;101070.91;;;22.11;9.71
74561;BME280;62979;55.720;37.606;2023-04-15T12:46:59;101091.50;;;22.27;9.54
74561;BME280;62979;55.720;37.606;2023-04-15T12:49:25;101093.66;;;22.18;9.05
74561;BME280;62979;55.720;37.606;2023-04-15T12:51:55;101084.66;;;21.48;9.10
74561;BME280;62979;55.720;37.606;2023-04-15T12:54:23;101064.13;;;21.69;9.76